createdAt,value
2018-09-25T00:03:12.408Z,10.60
2018-09-25T00:07:20.419Z,10.90
2018-09-25T00:11:28.481Z,11.20
2018-09-25T00:15:36.551Z,11.00
2018-09-25T00:19:44.544Z,10.70
2018-09-25T00:23:52.327Z,10.80
2018-09-25T00:28:00.082Z,10.80
2018-09-25T00:32:07.897Z,10.70
2018-09-25T00:36:15.942Z,11.00
2018-09-25T00:40:23.764Z,10.50
2018-09-25T00:44:31.680Z,10.40
2018-09-25T00:48:40.143Z,10.00
2018-09-25T00:52:48.067Z,9.80
2018-09-25T00:56:55.871Z,9.90
2018-09-25T01:01:03.793Z,10.60
2018-09-25T01:05:11.767Z,9.50
2018-09-25T01:09:19.678Z,10.10
2018-09-25T01:13:27.618Z,10.20
2018-09-25T01:17:35.431Z,9.60
2018-09-25T01:21:43.219Z,9.00
2018-09-25T01:25:51.167Z,9.40
2018-09-25T01:29:59.070Z,9.10
2018-09-25T01:34:06.941Z,10.10
2018-09-25T01:38:14.927Z,9.90
2018-09-25T01:42:22.747Z,9.20
2018-09-25T01:46:30.734Z,9.80
2018-09-25T01:50:38.649Z,10.50
2018-09-25T01:54:46.544Z,11.20
2018-09-25T01:58:54.527Z,11.30
2018-09-25T02:03:02.386Z,11.40
2018-09-25T02:07:10.291Z,11.30
2018-09-25T02:11:18.127Z,10.70
2018-09-25T02:15:25.918Z,10.80
2018-09-25T02:19:33.826Z,10.90
2018-09-25T02:23:41.741Z,10.80
2018-09-25T02:27:49.494Z,10.70
2018-09-25T02:31:57.429Z,10.20
2018-09-25T02:36:05.331Z,9.70
2018-09-25T02:40:13.247Z,9.90
2018-09-25T02:44:21.465Z,10.30
2018-09-25T02:48:29.199Z,10.30
2018-09-25T02:52:37.139Z,10.30
2018-09-25T02:56:44.778Z,10.20
2018-09-25T03:00:52.719Z,10.10
2018-09-25T03:05:00.487Z,10.10
2018-09-25T03:09:08.399Z,10.00
2018-09-25T03:13:16.299Z,9.90
2018-09-25T03:17:24.169Z,9.80
2018-09-25T03:21:32.120Z,9.50
2018-09-25T03:25:39.921Z,9.70
2018-09-25T03:29:47.743Z,9.50
2018-09-25T03:33:55.582Z,9.60
2018-09-25T03:38:03.367Z,9.60
2018-09-25T03:42:11.322Z,9.60
2018-09-25T03:46:19.272Z,9.40
2018-09-25T03:50:27.287Z,9.30
2018-09-25T03:54:35.163Z,9.20
2018-09-25T03:58:43.142Z,9.20
2018-09-25T04:02:51.041Z,9.10
2018-09-25T04:06:58.899Z,9.20
2018-09-25T04:11:06.671Z,9.00
2018-09-25T04:15:14.679Z,8.60
2018-09-25T04:19:22.674Z,9.00
2018-09-25T04:23:30.482Z,8.90
2018-09-25T04:27:38.377Z,8.90
2018-09-25T04:31:46.324Z,8.90
2018-09-25T04:35:54.054Z,9.10
2018-09-25T04:40:02.044Z,9.00
2018-09-25T04:44:09.974Z,9.10
2018-09-25T04:48:17.859Z,8.70
2018-09-25T04:52:25.816Z,9.10
2018-09-25T04:56:33.707Z,9.00
2018-09-25T05:00:42.368Z,9.10
2018-09-25T05:04:50.310Z,8.80
2018-09-25T05:08:58.227Z,8.50
2018-09-25T05:13:06.220Z,8.70
2018-09-25T05:17:13.963Z,8.80
2018-09-25T05:21:21.776Z,8.30
2018-09-25T05:25:29.636Z,8.50
2018-09-25T05:29:37.681Z,9.00
2018-09-25T05:33:45.413Z,9.00
2018-09-25T05:37:53.363Z,8.60
2018-09-25T05:42:01.259Z,8.50
2018-09-25T05:46:09.170Z,9.10
2018-09-25T05:50:17.326Z,9.10
2018-09-25T05:54:25.069Z,9.20
2018-09-25T05:58:32.793Z,9.30
2018-09-25T06:02:40.787Z,9.50
2018-09-25T06:06:48.794Z,9.60
2018-09-25T06:10:56.763Z,9.90
2018-09-25T06:15:04.715Z,10.00
2018-09-25T06:19:12.705Z,9.50
2018-09-25T06:23:20.488Z,9.10
2018-09-25T06:27:28.603Z,9.70
2018-09-25T06:31:39.494Z,9.10
2018-09-25T06:35:47.546Z,9.70
2018-09-25T06:39:55.353Z,11.10
2018-09-25T06:44:03.234Z,11.50
2018-09-25T06:48:11.037Z,12.20
2018-09-25T06:52:19.016Z,12.80
2018-09-25T06:56:26.749Z,12.00
2018-09-25T07:00:34.537Z,12.40
2018-09-25T07:04:42.519Z,12.10
2018-09-25T07:08:50.255Z,12.80
2018-09-25T07:12:58.293Z,13.50
2018-09-25T07:17:06.199Z,14.10
2018-09-25T07:21:14.252Z,14.70
2018-09-25T07:25:22.047Z,15.30
2018-09-25T07:29:29.879Z,15.80
2018-09-25T07:33:37.800Z,16.00
2018-09-25T07:37:45.638Z,16.30
2018-09-25T07:41:53.479Z,16.30
2018-09-25T07:46:01.168Z,16.30
2018-09-25T07:50:09.042Z,16.30
2018-09-25T07:54:16.965Z,14.60
2018-09-25T07:58:24.969Z,15.50
2018-09-25T08:02:32.855Z,15.40
2018-09-25T08:06:40.760Z,14.30
2018-09-25T08:10:48.498Z,11.70
2018-09-25T08:14:56.435Z,11.10
2018-09-25T08:19:04.420Z,10.70
2018-09-25T08:23:12.387Z,10.50
2018-09-25T08:27:20.365Z,10.80
2018-09-25T08:31:28.108Z,12.10
2018-09-25T08:35:36.137Z,11.10
2018-09-25T08:39:43.883Z,11.90
2018-09-25T08:43:51.677Z,12.50
2018-09-25T08:47:59.486Z,11.60
2018-09-25T08:52:07.314Z,11.60
2018-09-25T08:56:15.019Z,12.40
2018-09-25T09:00:22.868Z,11.80
2018-09-25T09:04:30.694Z,11.80
2018-09-25T09:08:38.592Z,11.80
2018-09-25T09:12:46.408Z,12.10
2018-09-25T09:16:54.316Z,12.00
2018-09-25T09:21:02.254Z,12.30
2018-09-25T09:25:10.204Z,12.10
2018-09-25T09:29:18.282Z,13.30
2018-09-25T09:33:26.296Z,11.40
2018-09-25T09:37:34.221Z,12.30
2018-09-25T09:41:42.392Z,11.30
2018-09-25T09:45:50.132Z,12.20
2018-09-25T09:49:58.030Z,14.50
2018-09-25T09:54:05.968Z,12.20
2018-09-25T09:58:13.900Z,14.10
2018-09-25T10:02:21.624Z,14.70
2018-09-25T10:06:29.529Z,16.00
2018-09-25T10:10:37.418Z,15.90
2018-09-25T10:14:45.422Z,15.60
2018-09-25T10:18:53.346Z,15.10
2018-09-25T10:23:01.347Z,15.70
2018-09-25T10:27:09.225Z,15.30
2018-09-25T10:31:17.225Z,15.30
2018-09-25T10:35:25.143Z,15.20
2018-09-25T10:39:32.900Z,16.60
2018-09-25T10:43:40.762Z,16.20
2018-09-25T10:47:48.730Z,16.50
2018-09-25T10:51:56.695Z,17.30
2018-09-25T10:56:04.793Z,17.10
2018-09-25T11:00:13.147Z,17.10
2018-09-25T11:04:20.998Z,16.00
2018-09-25T11:08:28.962Z,17.40
2018-09-25T11:12:36.912Z,18.70
2018-09-25T11:16:44.646Z,18.50
2018-09-25T11:20:52.628Z,16.80
2018-09-25T11:25:00.508Z,18.20
2018-09-25T11:29:08.341Z,19.10
2018-09-25T11:33:16.076Z,19.30
2018-09-25T11:37:23.935Z,20.10
2018-09-25T11:41:31.743Z,19.60
2018-09-25T11:45:39.553Z,19.90
2018-09-25T11:49:47.481Z,18.60
2018-09-25T11:53:55.371Z,15.50
2018-09-25T11:58:03.334Z,17.00
2018-09-25T12:02:11.268Z,17.40
2018-09-25T12:06:19.141Z,16.00
2018-09-25T12:10:27.060Z,16.10
2018-09-25T12:14:35.124Z,14.70
2018-09-25T12:18:43.009Z,15.30
2018-09-25T12:22:50.823Z,15.80
2018-09-25T12:26:58.829Z,16.20
2018-09-25T12:31:06.764Z,16.40
2018-09-25T12:35:14.692Z,16.70
2018-09-25T12:39:22.733Z,14.70
2018-09-25T12:43:30.640Z,15.10
2018-09-25T12:47:38.540Z,15.20
2018-09-25T12:51:46.547Z,17.80
2018-09-25T12:55:54.332Z,19.20
2018-09-25T13:00:02.343Z,18.00
2018-09-25T13:13:01.972Z,17.30
2018-09-25T13:17:09.950Z,17.20
2018-09-25T13:21:17.910Z,15.80
2018-09-25T13:25:25.911Z,16.20
2018-09-25T13:29:33.919Z,15.20
2018-09-25T13:33:41.916Z,16.60
2018-09-25T13:37:49.842Z,16.10
2018-09-25T13:41:57.800Z,17.60
2018-09-25T13:46:05.772Z,18.50
2018-09-25T13:50:14.000Z,18.80
2018-09-25T13:54:21.904Z,21.50
2018-09-25T13:58:29.865Z,21.20
2018-09-25T14:02:37.882Z,22.30
2018-09-25T14:06:45.911Z,21.80
2018-09-25T14:10:53.915Z,20.10
2018-09-25T14:15:01.871Z,19.00
2018-09-25T14:19:09.877Z,19.90
2018-09-25T14:23:17.881Z,20.10
2018-09-25T14:31:54.629Z,17.70
2018-09-25T14:36:02.567Z,19.10
2018-09-25T14:40:10.571Z,18.90
2018-09-25T14:44:18.677Z,20.20
2018-09-25T14:48:26.641Z,20.70
2018-09-25T14:52:34.674Z,20.40
2018-09-25T14:56:42.836Z,21.60
2018-09-25T15:00:50.788Z,20.40
2018-09-25T15:04:58.854Z,21.60
2018-09-25T15:09:07.633Z,21.40
2018-09-25T15:13:15.690Z,17.90
2018-09-25T15:17:23.753Z,17.10
2018-09-25T15:21:32.992Z,15.70
2018-09-25T15:25:41.285Z,16.90
2018-09-25T15:29:49.364Z,17.70
2018-09-25T15:33:58.638Z,17.00
2018-09-25T15:38:06.495Z,15.70
2018-09-25T15:42:15.275Z,16.50
2018-09-25T15:46:23.747Z,17.60
2018-09-25T15:50:31.782Z,17.80
2018-09-25T15:54:40.184Z,18.60
2018-09-25T15:58:48.263Z,18.90
2018-09-25T16:02:57.925Z,19.40
2018-09-25T16:07:05.773Z,19.50
2018-09-25T16:11:13.824Z,18.70
2018-09-25T16:15:21.737Z,19.60
2018-09-25T16:19:30.005Z,19.80
2018-09-25T16:23:37.957Z,19.90
2018-09-25T16:27:45.958Z,19.30
2018-09-25T16:31:53.933Z,19.70
2018-09-25T16:36:01.928Z,18.70
2018-09-25T16:40:09.988Z,18.30
2018-09-25T16:44:18.040Z,16.90
2018-09-25T16:48:26.048Z,17.80
2018-09-25T16:52:34.083Z,17.10
2018-09-25T16:56:42.196Z,17.60
2018-09-25T17:00:50.209Z,17.00
2018-09-25T17:04:58.255Z,17.10
2018-09-25T17:09:07.514Z,17.10
2018-09-25T17:13:15.532Z,17.10
2018-09-25T17:17:23.538Z,17.10
2018-09-25T17:21:31.671Z,17.20
2018-09-25T17:25:39.740Z,15.40
2018-09-25T17:29:47.761Z,16.10
2018-09-25T17:33:55.664Z,16.40
2018-09-25T17:38:03.769Z,16.50
2018-09-25T17:42:11.854Z,16.70
2018-09-25T17:46:19.901Z,16.30
2018-09-25T17:50:27.909Z,16.20
2018-09-25T17:54:35.939Z,15.90
2018-09-25T17:58:43.928Z,15.80
2018-09-25T18:02:51.898Z,15.60
2018-09-25T18:07:01.744Z,15.50
2018-09-25T18:11:11.257Z,15.20
2018-09-25T18:15:21.733Z,15.10
2018-09-25T18:19:31.536Z,14.90
2018-09-25T18:23:39.734Z,14.70
2018-09-25T18:27:47.718Z,14.50
2018-09-25T18:31:55.688Z,14.40
2018-09-25T18:36:03.740Z,14.30
2018-09-25T18:40:12.578Z,14.30
2018-09-25T18:44:20.692Z,14.40
2018-09-25T18:48:29.070Z,14.10
2018-09-25T18:52:36.969Z,14.00
2018-09-25T18:56:44.838Z,13.80
2018-09-25T19:00:52.819Z,13.50
2018-09-25T19:05:00.908Z,13.30
2018-09-25T19:09:12.084Z,13.30
2018-09-25T19:13:21.498Z,13.30
2018-09-25T19:17:31.533Z,12.70
2018-09-25T19:21:41.710Z,12.80
2018-09-25T19:25:49.997Z,13.10
2018-09-25T19:29:57.964Z,13.00
2018-09-25T19:34:06.208Z,12.80
2018-09-25T19:38:14.218Z,12.60
2018-09-25T19:42:24.002Z,12.70
2018-09-25T19:46:31.923Z,12.60
2018-09-25T19:50:40.157Z,12.40
2018-09-25T19:54:48.107Z,12.50
2018-09-25T19:58:56.083Z,12.50
2018-09-25T20:03:04.142Z,12.40
2018-09-25T20:07:12.044Z,12.40
2018-09-25T20:11:20.145Z,11.90
2018-09-25T20:15:28.046Z,11.60
2018-09-25T20:19:36.053Z,12.10
2018-09-25T20:23:43.982Z,12.20
2018-09-25T20:27:51.961Z,12.30
2018-09-25T20:31:59.939Z,12.00
2018-09-25T20:36:07.766Z,11.80
2018-09-25T20:40:15.649Z,11.80
2018-09-25T20:44:23.718Z,11.70
2018-09-25T20:48:31.744Z,11.60
2018-09-25T20:52:39.613Z,11.70
2018-09-25T20:56:47.628Z,11.60
2018-09-25T21:00:55.471Z,11.40
2018-09-25T21:05:03.617Z,11.30
2018-09-25T21:09:13.802Z,11.20
2018-09-25T21:13:21.691Z,11.30
2018-09-25T21:17:29.747Z,11.30
2018-09-25T21:21:37.631Z,11.40
2018-09-25T21:25:45.577Z,11.10
2018-09-25T21:29:53.541Z,11.10
2018-09-25T21:34:01.544Z,10.90
2018-09-25T21:38:09.437Z,10.80
2018-09-25T21:42:17.530Z,10.80
2018-09-25T21:46:25.565Z,10.70
2018-09-25T21:50:33.498Z,10.90
2018-09-25T21:54:41.502Z,10.70
2018-09-25T21:58:49.575Z,10.80
2018-09-25T22:02:57.603Z,10.70
2018-09-25T22:07:05.540Z,10.50
2018-09-25T22:11:13.581Z,10.40
2018-09-25T22:15:21.611Z,10.40
2018-09-25T22:19:29.547Z,10.40
2018-09-25T22:23:37.496Z,10.20
2018-09-25T22:27:45.492Z,9.90
2018-09-25T22:31:53.527Z,9.90
2018-09-25T22:36:01.463Z,10.20
2018-09-25T22:40:09.561Z,10.20
2018-09-25T22:44:17.461Z,10.10
2018-09-25T22:48:25.431Z,10.20
2018-09-25T22:52:33.430Z,10.10
2018-09-25T22:56:41.310Z,10.20
2018-09-25T23:00:49.289Z,10.10
2018-09-25T23:04:57.301Z,10.10
2018-09-25T23:09:05.209Z,10.10
2018-09-25T23:13:12.995Z,9.90
2018-09-25T23:17:20.878Z,9.90
2018-09-25T23:21:28.905Z,9.80
2018-09-25T23:25:36.866Z,9.90
2018-09-25T23:29:44.818Z,9.70
2018-09-25T23:33:52.826Z,9.70
2018-09-25T23:38:00.810Z,9.60
2018-09-25T23:43:07.534Z,9.50
2018-09-25T23:47:17.815Z,8.80
2018-09-25T23:51:24.039Z,9.50
2018-09-25T23:55:33.927Z,9.40
2018-09-25T23:59:51.264Z,9.40
